Los Pachecos, New Mexico
Current Conditions -  °F | °C
As of 7:53 PM on Wednesday 22 Oct 2014 (Local Time) from KLVS Reporting Station
Clear Clear  
Wind Chill: 53°   Ceiling: Unl
Heat Index: 53°   Visibility: 10mi
Dew Point: 33°   Wind: 7mph
Humidity: 47%   Direction: 280°W
Pressure: 30.2"   Gusts: NA
Location:  35.582°N, 105.558°W
Report Text: KLVS 230153Z AUTO 28006KT 10SM CLR 12/01 A3020 RMK AO2 SLP170 T01170006
Loading
Personal Weather Stations






























Interactive Weather Map
Tropical Storm Tracking
New forecast layout! Learn more

10-Day Weather Forecast

Advertisements
Track Severe Weather on mobile